Latest Coastal Weather Observations for Brisbane Airport

IDQ60701

Issued at 6:51 pm EST Monday 31 August 2015 (issued every 10 minutes, with the page automatically refreshed every 10 minutes)

About coastal observations | Map of coastal stations | Coastal observations for QLD | Marine services | Other Formats
Station Details ID: 040842 Name: BRISBANE AERO Lat: -27.39 Lon: 153.13 Height: 4.51 m
Data from the previous 72 hours. | See also: Recent months at Brisbane Airport
Date/Time
EST
Temp

°C
Wind Pressure Rain
since 9am
mm
Weather Cloud Vis
km
Sea
Height
m
Swell
Dir
 
Speed
knots
Gust
knots
hPa Trend Height
m
Period
s
Dir
31/06:30pm 15.7 N 3 5 1014.1 - 0.0 - - 10 - - - -
31/06:00pm 16.0 NE 5 7 1013.9 F 0.0 Fine Mostly clear 40 - - - -
31/05:30pm 17.6 NNE 6 8 1013.6 - 0.0 - - 10 - - - -
31/05:00pm 18.8 NNE 7 9 1013.4 - 0.0 - - 10 - - - -
31/04:30pm 20.2 NNE 8 10 1013.1 - 0.0 - - 10 - - - -
31/04:00pm 20.8 NE 7 8 1012.9 - 0.0 - - 10 - - - -
31/03:30pm 20.7 NE 7 8 1013.0 - 0.0 - - 10 - - - -
31/03:00pm 20.7 NE 9 11 1013.1 R 0.0 Fine Mostly clear 40 - - - -
31/02:30pm 20.4 NNE 10 13 1013.2 - 0.0 - Partly cloudy 10 - - - -
31/02:00pm 21.1 NNE 9 14 1013.5 - 0.0 - Partly cloudy 10 - - - -
31/01:30pm 19.9 NNE 9 12 1013.8 - 0.0 - Partly cloudy 10 - - - -
31/01:00pm 20.7 NE 8 11 1014.0 - 0.0 - Mostly clear 10 - - - -
31/12:30pm 21.4 SSE 5 8 1014.3 - 0.0 - Mostly clear 10 - - - -
31/12:00pm 21.0 WSW 8 11 1014.7 F 0.0 Fine Mostly clear 40 - - - -
31/11:30am 20.4 SW 9 14 1015.1 - 0.0 - Mostly clear 10 - - - -
31/11:00am 20.2 SSW 8 12 1015.6 - 0.0 - Mostly clear 10 - - - -
31/10:30am 19.5 SSW 9 14 1016.1 - 0.0 - Mostly clear 10 - - - -
31/10:00am 18.8 SW 12 14 1016.5 - 0.0 - Mostly clear 10 - - - -
31/09:30am 18.2 SW 11 16 1016.5 - 0.0 - Mostly clear 10 - - - -
31/09:00am 18.0 SW 12 16 1016.6 F 0.0 Fine Mostly clear 40 - - - -
31/08:30am 17.2 SW 10 14 1016.7 - 0.0 - Mostly clear 10 - - - -
31/08:00am 15.7 WSW 9 11 1016.6 - 0.0 - Mostly clear 10 - - - -
31/07:30am 14.1 WSW 11 14 1016.3 - 0.0 - Mostly clear 10 - - - -
31/07:00am 12.3 SW 9 11 1016.2 - 0.0 - Mostly clear 10 - - - -
31/06:30am 10.1 SSW 7 9 1016.1 - 0.0 - Mostly clear 10 - - - -
31/06:00am 9.3 SW 9 12 1015.8 F 0.0 Fine Mostly clear 35 - - - -
31/05:30am 9.6 SW 9 11 1015.6 - 0.0 - Mostly clear 10 - - - -
31/05:00am 11.1 SW 10 12 1015.4 - 0.0 - Mostly clear 10 - - - -
31/04:30am 11.8 WSW 8 9 1015.4 - 0.0 - Mostly clear 10 - - - -
31/04:00am 11.8 WSW 10 13 1015.4 - 0.0 - Mostly clear 10 - - - -
31/03:30am 10.9 SW 7 7 1015.3 - 0.0 - Mostly clear 10 - - - -
31/03:00am 11.2 SW 5 6 1015.4 F 0.0 Fine Mostly clear 25 - - - -
31/02:30am 10.8 WSW 9 10 1015.4 - 0.0 - Mostly clear 10 - - - -
31/02:00am 10.8 WSW 9 12 1015.7 - 0.0 - Mostly clear 10 - - - -
31/01:30am 11.0 WSW 9 10 1015.9 - 0.0 - Mostly clear 10 - - - -
31/01:00am 11.6 WSW 7 9 1016.1 - 0.0 - Mostly clear 10 - - - -
31/12:30am 12.3 W 5 7 1016.4 - 0.0 - Mostly clear 10 - - - -
31/12:00am 12.3 WSW 7 9 1016.5 S 0.0 Fine Mostly clear 25 - - - -
 
Date/Time
EST
Temp

°C
Wind Pressure Rain
since 9am
mm
Weather Cloud Vis
km
Sea
Height
m
Swell
Dir
 
Speed
knots
Gust
knots
hPa Trend Height
m
Period
s
Dir
30/11:30pm 12.3 SW 7 8 1016.7 - 0.0 - Mostly clear 10 - - - -
30/11:00pm 12.2 SW 8 9 1016.8 - 0.0 - Mostly clear 10 - - - -
30/10:30pm 13.9 WSW 9 13 1016.9 - 0.0 - Mostly clear 10 - - - -
30/10:00pm 14.8 W 10 12 1016.8 - 0.0 - Mostly clear 10 - - - -
30/09:30pm 16.2 WSW 9 14 1016.7 - 0.0 - Mostly clear 10 - - - -
30/09:00pm 15.9 WSW 7 9 1016.6 R 0.0 Haze Partly cloudy 25 - - - -
30/08:30pm 15.5 W 5 7 1016.5 - 0.0 - Mostly clear 10 - - - -
30/08:00pm 15.5 SE 1 3 1016.3 - 0.0 - Mostly clear 10 - - - -
30/07:30pm 16.5 E 4 6 1016.0 - 0.0 - Mostly clear 10 - - - -
30/07:00pm 17.3 E 1 5 1015.5 - 0.0 - Mostly clear 10 - - - -
30/06:30pm 17.8 SE 3 7 1015.1 - 0.0 - - 10 - - - -
30/06:00pm 18.2 SE 4 10 1014.6 F 0.0 Fine Mostly clear 40 - - - -
30/05:30pm 19.1 W 9 13 1014.2 - 0.0 - - 10 - - - -
30/05:00pm 20.5 W 12 16 1013.6 - 0.0 - - 10 - - - -
30/04:30pm 21.1 W 13 17 1013.4 - 0.0 - - 10 - - - -
30/04:00pm 21.6 WSW 14 18 1013.5 - 0.0 - - 10 - - - -
30/03:30pm 22.2 WSW 11 16 1013.5 - 0.0 - - 10 - - - -
30/03:00pm 22.1 WSW 11 17 1013.8 R 0.0 Fine Mostly clear 40 - - - -
30/02:33pm 22.2 WSW 17 28 1013.8 - 0.0 - - 10 - - - -
30/02:30pm 22.3 WSW 17 23 1013.8 - 0.0 - - 10 - - - -
30/02:00pm 22.3 W 14 18 1014.1 - 0.0 - - 10 - - - -
30/01:30pm 22.5 WSW 16 22 1014.3 - 0.0 - - 10 - - - -
30/01:00pm 21.8 W 15 20 1014.6 - 0.0 - - 10 - - - -
30/12:30pm 21.9 WSW 14 18 1015.0 - 0.0 - - 10 - - - -
30/12:00pm 20.6 WSW 11 18 1015.6 F 0.0 Fine Mostly clear 40 - - - -
30/11:30am 21.1 WSW 13 19 1016.1 - 0.0 - Mostly clear 10 - - - -
30/11:00am 20.2 SW 14 21 1016.6 - 0.0 - Mostly clear 10 - - - -
30/10:30am 19.7 SW 13 19 1017.0 - 0.0 - Mostly clear 10 - - - -
30/10:00am 19.4 SW 13 18 1017.6 - 0.0 - Mostly clear 10 - - - -
30/09:30am 18.4 SW 11 17 1017.7 - 0.0 - Mostly clear 10 - - - -
30/09:00am 18.1 WSW 11 15 1017.8 F 15.4 Fine Partly cloudy 30 - - - -
30/08:30am 16.8 WSW 11 15 1017.9 - 15.4 - Mostly clear 10 - - - -
30/08:00am 15.5 WSW 7 9 1017.5 - 15.4 - Mostly clear 10 - - - -
30/07:30am 14.7 WSW 6 9 1017.4 - 15.4 - Mostly clear 10 - - - -
30/07:00am 14.6 W 6 7 1017.5 - 15.4 - Mostly clear 10 - - - -
30/06:30am 14.5 W 7 9 1017.2 - 15.4 - Mostly clear 10 - - - -
30/06:00am 14.0 W 7 8 1016.8 F 15.4 Fine Mostly cloudy 30 - - - -
30/05:30am 14.4 WSW 7 8 1016.7 - 15.4 - Mostly clear 10 - - - -
30/05:00am 14.8 W 5 6 1016.4 - 15.4 - Mostly clear 10 - - - -
30/04:30am 14.3 SW 5 7 1016.3 - 15.4 - Mostly clear 10 - - - -
30/04:00am 15.0 SSW 6 7 1016.3 - 15.4 - Mostly clear 10 - - - -
30/03:30am 15.1 SW 7 9 1016.9 - 15.4 - Mostly clear 10 - - - -
30/03:00am 15.2 SSW 5 8 1016.9 F 15.4 Fine Cloudy 30 - - - -
30/02:30am 15.4 SW 8 10 1017.4 - 15.4 - Mostly clear 10 - - - -
30/02:00am 15.5 E 4 6 1016.4 - 15.4 - Mostly clear 10 - - - -
30/01:30am 15.5 WSW 2 4 1017.9 - 15.4 Rain Mostly clear 10 - - - -
30/01:00am 15.7 WSW 5 6 1018.8 - 15.0 - Mostly clear 10 - - - -
30/12:30am 15.9 WSW 6 7 1019.2 - 15.0 Rain Mostly clear 10 - - - -
30/12:00am 16.0 WSW 6 7 1019.1 R 14.8 Rain Cloudy 15 - - - -
 
Date/Time
EST
Temp

°C
Wind Pressure Rain
since 9am
mm
Weather Cloud Vis
km
Sea
Height
m
Swell
Dir
 
Speed
knots
Gust
knots
hPa Trend Height
m
Period
s
Dir
29/11:30pm 16.1 WSW 7 8 1019.3 - 14.8 - Mostly clear 10 - - - -
29/11:00pm 15.8 SW 7 7 1019.0 - 14.8 - Mostly clear 10 - - - -
29/10:30pm 15.6 SSW 2 5 1018.8 - 14.8 - Mostly clear 10 - - - -
29/10:00pm 15.9 SSW 4 5 1019.3 - 14.8 - Mostly clear 10 - - - -
29/09:30pm 16.0 ESE 4 6 1019.5 - 14.8 Rain Mostly clear 10 - - - -
29/09:00pm 16.0 SSE 2 5 1019.7 F 14.4 Rain Cloudy 18 - - - -
29/08:30pm 16.0 S 3 4 1020.2 - 14.0 Rain Mostly clear 10 - - - -
29/08:00pm 16.0 SSW 5 6 1020.4 - 13.6 - Mostly clear 10 - - - -
29/07:35pm 16.1 SSW 5 6 1020.5 - 13.0 Rain Mostly clear 10 - - - -
29/07:30pm 16.1 SSW 5 6 1020.5 - 13.0 Rain Mostly clear 10 - - - -
29/07:00pm 16.0 SSE 3 5 1020.1 - 12.8 - Mostly clear 10 - - - -
29/06:30pm 16.0 SSW 5 7 1020.3 - 12.4 Rain Mostly clear 10 - - - -
29/06:01pm 15.9 SSW 8 10 1020.3 - 11.0 Rain Partly cloudy 9 - - - -
29/06:00pm 16.0 SSW 7 10 1020.2 R 10.8 Rain Cloudy 9 - - - -
29/05:49pm 16.0 SSW 7 9 1019.9 - 9.8 Rain Partly cloudy 8 - - - -
29/05:43pm 16.1 SSW 6 9 1019.9 - 9.2 Rain Partly cloudy 6 - - - -
29/05:30pm 16.4 SSW 5 8 1019.8 - 6.4 Rain Partly cloudy 4 - - - -
29/05:21pm 17.3 SSW 8 10 1019.6 - 2.4 Rain Mostly clear 4 - - - -
29/05:04pm 18.1 SE 4 5 1018.9 - 1.0 - Cloudy 6 - - - -
29/05:00pm 18.8 SE 3 5 1018.8 - 0.6 - Mostly cloudy 6 - - - -
29/04:54pm 19.9 SE 3 5 1018.8 - 0.0 Rain Mostly cloudy 6 - - - -
29/04:30pm 20.1 E 5 7 1018.4 - 0.0 - Mostly clear 10 - - - -
29/04:00pm 20.4 ENE 5 7 1018.3 - 0.0 - Mostly cloudy 10 - - - -
29/03:30pm 20.5 ENE 7 10 1018.2 - 0.0 - Mostly cloudy 10 - - - -
29/03:00pm 20.7 NE 8 10 1018.5 F 0.0 Distant precip. Mostly cloudy 25 - - - -
29/02:30pm 21.2 ENE 8 11 1018.9 - 0.0 - Mostly clear 10 - - - -
29/02:00pm 21.8 E 9 13 1019.2 - 0.0 - Partly cloudy 10 - - - -
29/01:30pm 21.2 ENE 7 10 1020.0 - 0.0 - Partly cloudy 10 - - - -
29/01:00pm 21.4 ENE 7 12 1020.4 - 0.0 - Partly cloudy 10 - - - -
29/12:30pm 21.4 ENE 8 12 1020.9 - 0.0 - Partly cloudy 10 - - - -
29/12:00pm 21.6 ESE 7 10 1021.4 F 0.0 Fine Mostly cloudy 30 - - - -
29/11:30am 21.9 ESE 7 11 1021.8 - 0.0 - Mostly clear 10 - - - -
29/11:00am 22.3 ESE 7 9 1022.2 - 0.0 - Mostly clear 10 - - - -
29/10:30am 21.5 SSE 6 8 1022.7 - 0.0 - Mostly clear 10 - - - -
29/10:00am 19.9 S 6 9 1022.8 - 0.0 - Mostly clear 10 - - - -
29/09:30am 18.5 SSW 7 10 1023.1 - 0.0 - Mostly clear 10 - - - -
29/09:00am 17.7 SSW 9 11 1023.2 F 0.2 Fine Mostly cloudy 30 - - - -
29/08:30am 16.2 SSW 9 12 1023.2 - 0.2 - Mostly clear 10 - - - -
29/08:00am 14.9 SSW 9 13 1022.9 - 0.2 - Mostly clear 10 - - - -
29/07:30am 14.0 SSW 7 9 1022.8 - 0.2 - Mostly clear 10 - - - -
29/07:00am 13.2 SSW 8 10 1022.5 - 0.2 - Mostly clear 10 - - - -
29/06:30am 11.5 SSW 7 8 1022.6 - 0.2 - Mostly clear 10 - - - -
29/06:00am 11.1 SSW 7 9 1022.3 R 0.2 Fine Mostly cloudy 40 - - - -
29/05:30am 11.3 SSW 9 10 1021.9 - 0.2 - - 10 - - - -
29/05:00am 11.8 SSW 7 10 1021.5 - 0.2 - - 10 - - - -
29/04:30am 11.5 SSW 8 10 1021.4 - 0.2 - - 10 - - - -
29/04:00am 12.0 SSW 8 10 1021.5 - 0.2 - - 10 - - - -
29/03:30am 11.5 SSW 8 10 1021.9 - 0.2 - - 10 - - - -
29/03:00am 12.4 SSW 7 8 1021.7 S 0.2 Fine Mostly cloudy 40 - - - -
29/02:30am 11.7 SW 6 7 1022.1 - 0.2 - - 10 - - - -
29/02:00am 12.0 SSW 6 7 1021.9 - 0.2 - - 10 - - - -
29/01:30am 12.2 SSW 6 7 1022.1 - 0.2 - Mostly clear 10 - - - -
29/01:00am 12.3 SW 5 6 1022.2 - 0.2 - Mostly clear 10 - - - -
29/12:30am 12.8 SSW 5 6 1022.3 - 0.2 - Mostly clear 10 - - - -
29/12:00am 13.9 SSW 4 5 1022.4 S 0.2 Fine Mostly clear 30 - - - -
 
Date/Time
EST
Temp

°C
Wind Pressure Rain
since 9am
mm
Weather Cloud Vis
km
Sea
Height
m
Swell
Dir
 
Speed
knots
Gust
knots
hPa Trend Height
m
Period
s
Dir
28/11:30pm 13.5 SW 4 5 1022.3 - 0.2 - Mostly clear 10 - - - -
28/11:00pm 13.9 SW 4 5 1022.1 - 0.2 - Mostly clear 10 - - - -
28/10:30pm 13.8 SSW 4 5 1022.4 - 0.2 - Mostly clear 10 - - - -
28/10:00pm 14.8 SSW 5 6 1022.5 - 0.2 - Mostly clear 10 - - - -
28/09:30pm 15.1 SSW 5 6 1022.5 - 0.2 - - 10 - - - -
28/09:00pm 14.3 CALM 0 0 1022.5 R 0.2 Fine Clear 30 - - - -
28/08:30pm 15.2 SE 5 5 1022.3 - 0.2 - - 10 - - - -
28/08:00pm 16.3 SE 4 5 1022.0 - 0.2 - - 10 - - - -
28/07:30pm 17.2 ESE 4 5 1021.6 - 0.2 - Mostly clear 10 - - - -
28/07:00pm 18.1 ESE 5 7 1021.2 - 0.2 - - 10 - - - -

Other Formats:

Comma delimited format used in spreadsheet applications
http://www.bom.gov.au/fwo/IDQ60701/IDQ60701.94578.axf

JavaScript Object Notation format (JSON) in row-major order
http://www.bom.gov.au/fwo/IDQ60701/IDQ60701.94578.json